Station info - map view · info · telemetry · weather · raw · status · beacons · messages · bulletins · browse · moving · my account
Callsign, ship name or locator: Clear       
It is possible to search using wildcards (*?) after a prefix. Example: OH*
APRS station DK2EZ-15 - show graphs
Map loading...
Comment: 9^:
Mic-E message: En route
Last status: _73` UWE mobil_qrv 145.500 MHz FM_APRS 144.800 MHz (T123 Hz)_
Location: 51°07.85' N 8°55.11' E - locator JO41LD01FJ - show map - static map
2.2 miles North bearing 343° from Frankenau, Hesse, Germany [?]
5.3 miles South bearing 193° from Vöhl, Regierungsbezirk Kassel, Hesse, Germany
68.7 miles East bearing 112° from Dortmund, North Rhine-Westphalia, Germany
70.8 miles North bearing 8° from Frankfurt am Main, Regierungsbezirk Darmstadt, Hesse, Germany
Last position: 2017-01-18 06:46:11 EST (3d 14h ago)
2017-01-18 12:46:11 CET local time at Frankenau, Germany [?]
Altitude: 1056 ft
Course: 310°
Speed: 24 MPH
Device: Unknown: Other Mic-E
Last path: DK2EZ-15>UQ0WX5 via WIDE1-1,WIDE2-2,qAR,DB0ALT-10 (good)
Positions stored: 127820
Packet rate: 31 seconds between packets on average during 277 seconds.
Other SSIDs: DK2EZ DK2EZ-10 DK2EZ-7
Stations near current position of DK2EZ-15 - show more
callsign distance last heard - EST      callsign distance last heard - EST
LY2EZ207.5 yards 209°2016-12-26 16:39:22 DB0ALT-10237.7 yards 320°2017-01-21 20:19:14
DK2EZ-10237.7 yards 320°2017-01-21 20:32:06 DK2EZ-7269.7 yards 319°2017-01-07 08:22:08
L23335083.1 miles 301°2017-01-03 04:57:28 L20233424.3 miles 3°2017-01-03 07:54:55
DO3AV6.5 miles 235°2017-01-18 10:00:44 M22230946.9 miles 312°2016-12-31 07:42:18
L23239217.3 miles 145°2017-01-04 07:42:26 M22230769.2 miles 18°2017-01-01 07:38:21
DO4BOS-510.0 miles 337°2017-01-21 05:14:55 Df1mp-910.1 miles 155°2016-12-26 05:37:58
DJ5UD12.5 miles 120°2017-01-20 11:41:58 K492450512.8 miles 68°2017-01-15 20:26:49
M122375413.5 miles 131°2016-12-23 08:05:03 L231399114.1 miles 242°2017-01-03 02:13:51
M224331814.3 miles 72°2017-01-01 19:37:17 M192372614.6 miles 334°2017-01-04 20:02:50
M194322814.6 miles 65°2017-01-12 07:34:32 K492452115.7 miles 329°2017-01-16 13:28:04
Stations which heard DK2EZ-15 directly on radio –
callsign pkts first heard - EST last heard longest (tx => rx) longest at - EST
DB0KX-2 18 2017-01-17 04:07:46 2017-01-17 08:32:53 JO31MI > JO31EG 31.2 miles 260° 2017-01-17 04:07:46
DB0FD 2 2017-01-17 01:47:47 2017-01-17 01:48:38 JO41ML > JO42SF 56.9 miles 23° 2017-01-17 01:48:38
DB0KH 20 2017-01-08 11:19:22 2017-01-17 12:16:55 JO41KM > JO40RV 48.1 miles 152° 2017-01-17 11:46:42
DB0MYK 2 2017-01-17 04:11:47 2017-01-17 05:10:40 JO31LH > JO30OJ 65.1 miles 172° 2017-01-17 05:10:40
DB0REC 21 2017-01-17 03:29:37 2017-01-17 10:32:54 JO31ML > JO31OP 12.8 miles 27° 2017-01-17 03:55:24
DB0GPS 16 2017-01-08 13:34:19 2017-01-17 12:07:27 JO41CN > JO41PU 50.3 miles 67° 2017-01-17 02:16:59
DB0END 28 2017-01-17 02:59:45 2017-01-17 10:59:59 JO31UM > JO31PH 23.7 miles 230° 2017-01-17 02:59:45
DM2HB 34 2017-01-17 01:55:35 2017-01-17 11:37:24 JO31VM > JO41EQ 26.0 miles 65° 2017-01-17 02:39:05
DB0DY 3 2017-01-17 02:30:13 2017-01-17 11:16:26 JO31VM > JO32WE 44.6 miles 6° 2017-01-17 11:08:28
DB0OTV-2 2 2017-01-17 05:08:32 2017-01-17 08:29:18 JO31LK > JO31HG 17.8 miles 230° 2017-01-17 08:29:18
DB0RHB 1 2017-01-17 05:06:39 2017-01-17 05:06:39 JO31LH > JO30LN 51.7 miles 181° 2017-01-17 05:06:39
DO4BM-2 1 2017-01-17 11:16:47 2017-01-17 11:16:47 JO41AN > JO32WS 86.3 miles 355° 2017-01-17 11:16:47
DH5JG 23 2017-01-17 04:10:50 2017-01-17 08:36:24 JO31MH > JO31KJ 9.0 miles 310° 2017-01-17 04:11:45
DB0ALT-10 96 2017-01-08 10:54:28 2017-01-18 06:45:59 JO41KG > JO41KD 11.1 miles 172° 2017-01-17 01:20:09
DB0ABB 6 2017-01-17 01:20:01 2017-01-17 12:08:11 JO41KG > JO41UO 42.9 miles 59° 2017-01-17 01:20:01
DB0KOE 2 2017-01-17 04:28:26 2017-01-17 05:50:31 JO31LJ > JO30LW 31.6 miles 182° 2017-01-17 05:50:31
DG1RUE 6 2017-01-17 02:36:31 2017-01-17 11:08:21 JO31VM > JO32VA 34.6 miles 359° 2017-01-17 02:46:38
DB0DRI 18 2017-01-08 11:35:56 2017-01-17 12:28:30 JO41ME > JO41MS 38.9 miles 1° 2017-01-08 11:35:56
DB0HAT 64 2017-01-17 02:05:40 2017-01-17 11:36:07 JO41HO > JO31VQ 36.0 miles 280° 2017-01-17 11:36:07
DB0DAM 2 2017-01-17 02:04:15 2017-01-17 02:47:09 JO31VM > JO42CN 73.6 miles 14° 2017-01-17 02:47:09
DB0UHC 13 2017-01-17 04:15:38 2017-01-17 08:32:49 JO31LK > JO31HB 29.2 miles 209° 2017-01-17 08:32:49
DL5EBB 14 2017-01-17 03:47:53 2017-01-17 10:19:23 JO31OL > JO31LL 10.7 miles 272° 2017-01-17 10:19:23
DL6LJ 2 2017-01-17 04:13:44 2017-01-17 05:12:14 JO31LI > JO31MF 8.4 miles 153° 2017-01-17 05:12:14
DB0DOS-10 11 2017-01-17 02:08:30 2017-01-17 11:13:43 JO31RM > JO42AE 52.6 miles 27° 2017-01-17 03:17:58
DB0PBS-1 15 2017-01-17 01:57:09 2017-01-17 11:42:46 JO41FO > JO41JQ 15.9 miles 59° 2017-01-17 11:29:37
DL0HC 2 2017-01-17 03:39:31 2017-01-17 10:21:27 JO31OL > JO31OJ 4.4 miles 182° 2017-01-17 10:21:27
DK1SR 5 2017-01-17 01:58:51 2017-01-17 11:28:27 JO41CN > JO41HX 33.8 miles 32° 2017-01-17 02:17:22
DB0FBB 12 2017-01-17 03:05:29 2017-01-17 11:06:58 JO31VM > JO31RM 11.1 miles 270° 2017-01-17 11:06:58
DL6PI 24 2017-01-17 03:06:32 2017-01-17 10:47:31 JO31MI > JO31PN 17.8 miles 39° 2017-01-17 05:15:55
DG7DCG-3 5 2017-01-17 03:26:39 2017-01-17 10:35:03 JO31LJ > JO31OI 13.2 miles 103° 2017-01-17 05:54:22
DL2SB-10 1 2017-01-17 04:07:12 2017-01-17 04:07:12 JO31MI > JO31NG 6.5 miles 151° 2017-01-17 04:07:12
DH6WS-10 5 2017-01-17 02:05:39 2017-01-17 11:35:00 JO41HO > JO41DU 21.5 miles 322° 2017-01-17 11:35:00
DB1AN 1 2017-01-17 05:52:55 2017-01-17 05:52:55 JO31LJ > JO31DP 32.2 miles 302° 2017-01-17 05:52:55
DB0WET-10 3 2017-01-17 03:59:36 2017-01-17 10:29:51 JO31MK > JO31QI 14.7 miles 111° 2017-01-17 03:59:36
DB0NLH 35 2017-01-17 01:41:55 2017-01-17 11:42:21 JO41MK > JO42DC 55.0 miles 326° 2017-01-17 01:41:55
DO1WSA-10 3 2017-01-17 05:08:31 2017-01-17 08:27:42 JO31LH > JO31IL 15.6 miles 312° 2017-01-17 05:08:31
DF4DR-10 42 2017-01-17 03:04:19 2017-01-17 11:05:37 JO31OL > JO31SM 14.3 miles 76° 2017-01-17 03:48:17
DB0ENL-10 13 2017-01-17 03:25:57 2017-01-17 10:42:04 JO31OL > JO31QG 15.9 miles 153° 2017-01-17 08:57:44
DB0NIS-10 2 2017-01-17 05:12:23 2017-01-17 08:30:44 JO31LK > JO30EP 58.1 miles 204° 2017-01-17 08:30:44
DO2JMG-10 19 2017-01-17 01:54:35 2017-01-17 11:40:20 JO31UM > JO42EC 48.4 miles 35° 2017-01-17 11:06:09
DB0NOS 17 2017-01-17 02:01:10 2017-01-18 04:07:17 JO41LC > JO41HW 57.5 miles 349° 2017-01-18 04:07:17
DB0KU-10 1 2017-01-17 11:11:03 2017-01-17 11:11:03 JO31WM > JO41BE 24.9 miles 157° 2017-01-17 11:11:03
DB0NX-10 2 2017-01-17 10:43:41 2017-01-17 11:04:28 JO31UM > JO31TH 14.9 miles 192° 2017-01-17 11:04:28
DL2YCP-10 12 2017-01-17 02:32:00 2017-01-17 11:06:34 JO31WM > JO31SR 20.1 miles 311° 2017-01-17 02:32:00
DL1ZAX-10 1 2017-01-17 11:53:56 2017-01-17 11:53:56 JO41ML > JO41SG 27.2 miles 121° 2017-01-17 11:53:56

Only position packets which were originated by the station are shown here. The range statistics show some extra long hops, because some digipeaters do not correctly add themselves to the digipeater path. Please check the raw packets.
About this site
This page shows real-time information collected from the Automatic Position Reporting System Internet network (APRS-IS). APRS is used by amateur (ham) radio operators to transmit real-time position information, weather data, telemetry and messages over the radio. A vehicle equipped with a GPS receiver, a VHF transmitter or HF transceiver and a small computer device called a tracker transmits it's location, speed and course in a small data packet, which is then received by a nearby iGate receiving site which forwards the packet on the Internet. Systems connected to the Internet can send information on the APRS-IS without a radio transmitter, or collect and display information transmitted anywhere in the world.
FAQ · Blog · Discussion group · Linking to aprs.fi · AIS sites · Service status · Database statistics · Advertising on aprs.fi · Technical details · API · Change log · Planned changes · Credits and thanks · Terms Of Service · iPhone/iPad APRS